Latest Weather Observations for Richmond

IDN60801

Issued at 9:22 pm EST Wednesday 5 August 2020 (issued every 10 minutes, with the page automatically refreshed every 10 minutes)

About weather observations | Map of weather stations | Latest weather observations for NSW | Other Formats
Station Details ID: 067105 Name: RICHMOND RAAF Lat: -33.60 Lon: 150.78 Height: 19.0 m
Data from the previous 72 hours. | See also: Recent months at Richmond
Date/Time
EST
Temp
°C
App
Temp
°C
Dew
Point
°C
Rel
Hum
%
Delta-T
°C
Wind Press
QNH
hPa
Press
MSL
hPa
Rain since
9am
mm
Dir  Spd
km/h
Gust
km/h
Spd
kts
Gust
kts
05/09:00pm 8.6 4.0 -0.7 52 3.6 WNW 13 17 7 9 1016.1 1016.1 0.0
05/08:30pm 10.5 5.9 -0.9 45 4.5 NW 13 20 7 11 1015.9 1015.9 0.0
05/08:00pm 9.4 6.9 -1.3 47 4.1 WNW 2 7 1 4 1015.5 1015.5 0.0
05/07:30pm 8.9 5.6 -0.9 50 3.8 NNE 6 9 3 5 1015.1 1015.1 0.0
05/07:00pm 10.8 5.4 -1.6 42 4.8 NW 17 24 9 13 1014.4 1014.4 0.0
05/06:30pm 11.2 4.8 -1.9 40 5.1 WNW 22 28 12 15 1014.0 1014.0 0.0
05/06:00pm 11.4 6.4 -4.3 33 5.8 WNW 13 17 7 9 1013.5 1013.5 0.0
05/05:30pm 12.5 6.8 -4.1 31 6.2 W 17 22 9 12 1013.1 1013.1 0.0
05/05:00pm 13.9 8.2 -3.8 29 6.8 WNW 17 24 9 13 1012.7 1012.7 0.0
05/04:30pm 15.6 8.4 -4.9 24 7.8 WNW 24 30 13 16 1012.3 1012.3 0.0
05/04:00pm 16.4 8.9 -4.8 23 8.2 W 26 32 14 17 1012.2 1012.2 0.0
05/03:30pm 16.9 9.4 -4.3 23 8.3 W 26 33 14 18 1012.0 1012.0 0.0
05/03:00pm 17.3 10.0 -2.9 25 8.2 W 26 37 14 20 1011.9 1011.9 0.0
05/02:30pm 17.3 8.8 -2.9 25 8.2 W 32 43 17 23 1011.8 1011.8 0.0
05/02:25pm 17.2 9.2 -2.4 26 8.0 W 30 43 16 23 1011.7 1011.7 0.0
05/02:00pm 17.0 11.2 -0.2 31 7.4 NNW 20 28 11 15 1011.8 1011.8 0.0
05/01:30pm 16.3 10.6 -0.4 32 7.1 NW 19 26 10 14 1011.9 1011.9 0.0
05/01:00pm 15.9 9.1 -1.6 30 7.2 NW 24 32 13 17 1012.2 1012.2 0.0
05/12:30pm 16.5 9.9 -0.2 32 7.1 WNW 24 33 13 18 1012.3 1012.3 0.0
05/12:00pm 16.1 10.3 -1.5 30 7.3 WSW 19 28 10 15 1012.5 1012.5 0.0
05/11:30am 15.6 9.7 -1.0 32 6.9 WNW 20 30 11 16 1012.8 1012.8 0.0
05/11:00am 14.7 8.7 -1.4 33 6.6 WNW 20 28 11 15 1013.1 1013.1 0.0
05/10:30am 14.2 8.8 -1.4 34 6.3 WNW 17 24 9 13 1013.1 1013.1 0.0
05/10:00am 12.9 6.0 -3.0 33 6.1 WNW 24 35 13 19 1013.4 1013.4 0.0
05/09:30am 12.1 6.5 -2.5 36 5.7 NW 17 24 9 13 1013.4 1013.4 0.0
05/09:00am 10.5 5.2 -0.3 47 4.3 NNW 17 22 9 12 1013.4 1013.4 0.0
05/08:30am 8.9 3.9 1.1 58 3.2 NNW 17 22 9 12 1013.8 1013.8 0.0
05/08:00am 7.1 2.3 0.3 62 2.7 N 15 20 8 11 1013.5 1013.5 0.0
05/07:30am 6.2 2.2 0.3 66 2.3 N 11 17 6 9 1013.8 1013.8 0.0
05/07:00am 5.5 0.2 -0.8 64 2.4 NW 17 22 9 12 1013.8 1013.8 0.0
05/06:30am 4.3 -0.3 -1.3 67 2.0 NW 13 17 7 9 1013.9 1013.9 0.0
05/06:00am 4.5 -0.5 -1.3 66 2.1 NNW 15 20 8 11 1014.0 1014.0 0.0
05/05:30am 5.7 1.0 -1.7 59 2.7 NNW 13 17 7 9 1014.0 1014.0 0.0
05/05:00am 4.9 -0.5 -1.5 63 2.3 WNW 17 20 9 11 1014.0 1014.0 0.0
05/04:30am 4.5 -0.3 -2.6 60 2.5 WSW 13 17 7 9 1013.9 1013.9 0.0
05/04:00am 6.2 0.8 -1.4 58 2.8 W 17 24 9 13 1013.9 1013.9 0.0
05/03:30am 4.7 -0.4 -1.9 62 2.4 W 15 19 8 10 1013.9 1013.9 0.0
05/03:00am 3.8 -1.3 -2.0 66 2.1 W 15 17 8 9 1014.0 1014.0 0.0
05/02:30am 4.7 -0.4 -1.9 62 2.4 W 15 17 8 9 1014.2 1014.2 0.0
05/02:00am 5.5 -0.4 -1.9 59 2.7 W 19 24 10 13 1014.2 1014.2 0.0
05/01:30am 6.6 2.9 -2.8 51 3.4 WSW 7 20 4 11 1014.4 1014.4 0.0
05/01:00am 6.4 2.4 -2.2 54 3.1 W 9 13 5 7 1014.4 1014.4 0.0
05/12:30am 6.6 3.1 -1.5 56 3.0 SE 7 13 4 7 1014.3 1014.3 0.0
05/12:00am 6.2 3.7 -0.7 61 2.6 W 2 7 1 4 1014.3 1014.3 0.0
 
Date/Time
EST
Temp
°C
App
Temp
°C
Dew
Point
°C
Rel
Hum
%
Delta-T
°C
Wind Press
QNH
hPa
Press
MSL
hPa
Rain since
9am
mm
Dir  Spd
km/h
Gust
km/h
Spd
kts
Gust
kts
04/11:30pm 8.5 5.3 -0.5 53 3.5 SSW 6 7 3 4 1014.4 1014.4 0.0
04/11:00pm 8.6 3.9 -1.5 49 3.9 WSW 13 17 7 9 1014.3 1014.3 0.0
04/10:30pm 8.4 4.3 -0.1 55 3.4 W 11 15 6 8 1014.0 1014.0 0.0
04/10:00pm 10.7 7.2 1.0 51 4.0 SW 9 13 5 7 1013.9 1013.9 0.0
04/09:30pm 10.6 6.9 2.4 57 3.5 SW 11 13 6 7 1013.6 1013.6 0.0
04/09:00pm 11.2 6.6 3.7 60 3.3 W 17 22 9 12 1013.2 1013.2 0.0
04/08:30pm 12.6 7.5 4.1 56 3.8 W 20 26 11 14 1012.8 1012.8 0.0
04/08:00pm 11.7 7.6 4.2 60 3.4 W 15 17 8 9 1012.5 1012.5 0.0
04/07:30pm 13.0 8.9 4.2 55 4.0 W 15 19 8 10 1012.0 1012.0 0.0
04/07:00pm 14.6 8.8 4.3 50 4.8 W 24 30 13 16 1011.5 1011.5 0.0
04/06:30pm 14.7 10.0 5.0 52 4.5 W 19 28 10 15 1011.2 1011.2 0.0
04/06:00pm 16.4 11.5 5.1 47 5.4 W 20 28 11 15 1010.8 1010.8 0.0
04/05:30pm 16.4 12.3 4.4 45 5.6 WSW 15 22 8 12 1010.3 1010.3 0.0
04/05:00pm 18.3 13.8 4.1 39 6.7 WSW 17 22 9 12 1009.9 1009.9 0.0
04/04:30pm 19.5 13.9 3.2 34 7.6 WSW 22 30 12 16 1009.2 1009.2 0.0
04/04:00pm 20.4 14.0 3.2 32 8.1 W 26 39 14 21 1008.7 1008.7 0.0
04/03:30pm 21.0 13.3 3.2 31 8.4 W 33 41 18 22 1008.4 1008.4 0.0
04/03:00pm 21.5 14.2 2.7 29 8.9 W 30 43 16 23 1008.1 1008.1 0.0
04/02:32pm 21.8 14.2 3.9 31 8.7 W 33 52 18 28 1007.9 1007.9 0.0
04/02:30pm 21.8 13.8 3.9 31 8.7 W 35 52 19 28 1007.9 1007.9 0.0
04/02:00pm 21.8 13.5 4.4 32 8.5 W 37 54 20 29 1007.8 1007.8 0.0
04/01:48pm 20.6 12.9 3.3 32 8.2 W 33 54 18 29 1007.8 1007.8 0.0
04/01:30pm 20.5 13.0 3.3 32 8.1 W 32 41 17 22 1008.1 1008.1 0.0
04/01:00pm 20.2 15.0 3.4 33 8.0 W 20 39 11 21 1008.3 1008.3 0.0
04/12:30pm 20.5 14.8 2.8 31 8.3 WNW 22 30 12 16 1008.7 1008.7 0.0
04/12:00pm 21.2 18.3 4.7 34 8.1 NW 9 17 5 9 1009.3 1009.3 0.0
04/11:30am 20.0 17.2 5.3 38 7.2 NE 9 19 5 10 1010.0 1010.0 0.0
04/11:00am 19.0 15.7 6.2 43 6.4 ENE 13 17 7 9 1010.6 1010.6 0.0
04/10:30am 18.2 14.3 7.0 48 5.6 NE 17 20 9 11 1011.1 1011.1 0.0
04/10:00am 16.8 12.7 6.3 50 5.1 NNE 17 22 9 12 1011.5 1011.5 0.0
04/09:30am 16.0 14.1 7.7 58 4.2 N 7 13 4 7 1011.9 1011.9 0.0
04/09:00am 13.9 10.4 7.0 63 3.4 NNE 15 19 8 10 1012.1 1012.1 0.0
04/08:30am 11.9 9.8 6.8 71 2.4 NNE 7 11 4 6 1012.3 1012.3 0.0
04/08:00am 10.3 8.5 7.9 85 1.2 N 7 11 4 6 1012.5 1012.5 0.0
04/07:59am 10.2 8.4 8.1 87 1.0 N 7 13 4 7 1012.5 1012.5 0.0
04/07:30am 5.2 4.1 4.9 98 0.1 CALM 0 6 0 3 1012.5 1012.5 0.0
04/07:00am 3.4 0.6 3.1 98 0.1 NW 7 11 4 6 1012.7 1012.7 0.0
04/06:30am 3.4 1.9 3.1 98 0.1 CALM 0 0 0 0 1012.6 1012.6 0.0
04/06:00am 2.2 0.1 1.9 98 0.1 SW 2 6 1 3 1012.7 1012.7 0.0
04/05:30am 3.3 1.8 3.0 98 0.1 CALM 0 0 0 0 1012.7 1012.7 0.0
04/05:00am 3.3 1.8 2.9 97 0.2 CALM 0 6 0 3 1012.6 1012.6 0.0
04/04:30am 3.8 2.3 3.1 95 0.3 CALM 0 0 0 0 1012.8 1012.8 0.0
04/04:00am 4.9 3.6 4.2 95 0.3 CALM 0 0 0 0 1012.9 1012.9 0.0
04/03:30am 4.9 3.6 4.2 95 0.3 CALM 0 0 0 0 1013.1 1013.1 0.0
04/03:00am 5.1 3.9 4.4 95 0.3 CALM 0 0 0 0 1013.3 1013.3 0.0
04/02:30am 5.4 3.1 5.0 97 0.2 W 6 9 3 5 1013.7 1013.7 0.0
04/02:00am 5.4 3.4 4.2 92 0.5 NW 4 7 2 4 1013.8 1013.8 0.0
04/01:30am 6.6 5.0 4.4 86 0.9 WNW 2 9 1 5 1014.2 1014.2 0.0
04/01:00am 6.7 5.5 4.7 87 0.9 CALM 0 0 0 0 1014.4 1014.4 0.0
04/12:30am 8.2 6.2 4.4 77 1.7 NNE 4 7 2 4 1014.4 1014.4 0.0
04/12:00am 8.8 6.4 4.4 74 1.9 NNW 6 7 3 4 1014.7 1014.7 0.0
 
Date/Time
EST
Temp
°C
App
Temp
°C
Dew
Point
°C
Rel
Hum
%
Delta-T
°C
Wind Press
QNH
hPa
Press
MSL
hPa
Rain since
9am
mm
Dir  Spd
km/h
Gust
km/h
Spd
kts
Gust
kts
03/11:30pm 9.5 8.4 4.9 73 2.1 CALM 0 0 0 0 1014.9 1014.9 0.0
03/11:00pm 10.5 8.2 5.7 72 2.2 N 7 9 4 5 1015.0 1015.0 0.0
03/10:30pm 10.8 8.2 6.2 73 2.1 N 9 11 5 6 1015.2 1015.2 0.0
03/10:00pm 10.0 9.2 6.7 80 1.5 CALM 0 0 0 0 1015.3 1015.3 0.0
03/09:30pm 11.0 9.1 6.9 76 1.9 NNE 6 9 3 5 1015.3 1015.3 0.0
03/09:00pm 10.1 7.8 4.9 70 2.3 NNE 6 9 3 5 1015.4 1015.4 0.0
03/08:30pm 10.7 8.2 4.8 67 2.7 SE 7 9 4 5 1015.4 1015.4 0.0
03/08:00pm 11.4 9.8 4.4 62 3.2 WNW 2 7 1 4 1015.3 1015.3 0.0
03/07:30pm 12.9 10.2 3.8 54 4.1 NNE 7 9 4 5 1015.2 1015.2 0.0
03/07:00pm 14.4 10.7 2.3 44 5.3 WNW 11 13 6 7 1014.9 1014.9 0.0
03/06:30pm 14.8 10.7 2.0 42 5.6 WNW 13 17 7 9 1014.8 1014.8 0.0
03/06:00pm 15.3 11.4 1.1 38 6.2 WNW 11 15 6 8 1014.8 1014.8 0.0
03/05:30pm 16.9 13.3 0.5 33 7.1 NW 9 11 5 6 1014.6 1014.6 0.0
03/05:00pm 18.3 16.0 3.0 36 7.1 NNW 4 7 2 4 1014.7 1014.7 0.0
03/04:30pm 18.2 14.5 2.5 35 7.2 NW 11 17 6 9 1014.6 1014.6 0.0
03/04:00pm 20.0 19.5 7.7 45 6.3 CALM 0 6 0 3 1014.5 1014.5 0.0
03/03:30pm 21.0 19.3 7.6 42 6.9 N 6 7 3 4 1014.4 1014.4 0.0
03/03:00pm 20.8 17.8 7.8 43 6.7 NNE 13 19 7 10 1014.6 1014.6 0.0
03/02:30pm 20.9 17.2 4.5 34 8.0 NNE 13 19 7 10 1014.9 1014.9 0.0
03/02:00pm 20.2 18.0 7.9 45 6.3 NNE 9 11 5 6 1015.3 1015.3 0.0
03/01:30pm 20.0 18.5 10.7 55 5.1 NNE 9 15 5 8 1015.6 1015.6 0.0
03/01:00pm 18.3 17.6 9.9 58 4.5 N 4 11 2 6 1016.0 1016.0 0.0
03/12:30pm 16.9 16.8 9.6 62 3.8 CALM 0 7 0 4 1016.8 1016.8 0.0
03/12:00pm 15.6 15.5 9.3 66 3.2 CALM 0 2 0 1 1017.6 1017.6 0.0
03/11:30am 14.0 13.8 9.0 72 2.5 CALM 0 6 0 3 1018.5 1018.5 0.0
03/11:00am 12.0 11.3 8.7 80 1.6 ESE 2 7 1 4 1019.2 1019.2 0.0
03/10:30am 10.3 10.4 10.1 99 0.1 CALM 0 0 0 0 1019.8 1019.8 0.0
03/10:10am 9.6 9.5 9.5 99 0.0 CALM 0 0 0 0 1020.2 1020.2 0.0
03/10:00am 8.9 8.6 8.8 99 0.0 CALM 0 0 0 0 1020.3 1020.3 0.0
03/09:59am 8.4 8.0 8.3 99 0.0 CALM 0 0 0 0 1020.3 1020.3 0.0
03/09:30am 6.4 5.6 6.3 99 0.0 CALM 0 0 0 0 1020.6 1020.6 0.0
03/09:00am 5.1 4.0 5.0 99 0.0 CALM 0 0 0 0 1020.7 1020.7 0.0
03/08:30am 3.6 2.2 3.5 99 0.0 CALM 0 0 0 0 1020.9 1020.9 0.0
03/08:00am 2.9 1.4 2.8 99 0.0 CALM 0 0 0 0 1020.8 1020.8 0.0
03/07:30am 2.5 0.9 2.4 99 0.0 CALM 0 0 0 0 1020.9 1020.9 0.0
03/07:00am 1.7 -0.1 1.4 98 0.1 CALM 0 0 0 0 1020.7 1020.7 0.0
03/06:30am 1.6 -0.2 1.3 98 0.1 CALM 0 0 0 0 1020.4 1020.4 0.0
03/06:00am 1.9 0.2 1.6 98 0.1 CALM 0 0 0 0 1020.2 1020.2 0.0
03/05:30am 2.0 0.3 1.7 98 0.1 CALM 0 0 0 0 1020.0 1020.0 0.0
03/05:00am 2.6 1.0 2.3 98 0.1 CALM 0 0 0 0 1020.0 1020.0 0.0
03/04:30am 3.4 1.9 3.1 98 0.1 CALM 0 0 0 0 1020.1 1020.1 0.0
03/04:00am 3.3 1.8 3.0 98 0.1 CALM 0 0 0 0 1020.2 1020.2 0.0
03/03:30am 3.7 2.3 3.4 98 0.1 CALM 0 0 0 0 1020.5 1020.5 0.0
03/03:00am 4.0 2.6 3.7 98 0.1 CALM 0 0 0 0 1021.0 1021.0 0.0
03/02:39am 4.0 2.6 3.7 98 0.1 CALM 0 0 0 0 1021.1 1021.1 0.0
03/02:38am 4.0 2.6 3.7 98 0.1 CALM 0 0 0 0 1021.1 1021.1 0.0
03/02:30am 4.2 2.9 3.9 98 0.1 CALM 0 0 0 0 1021.0 1021.0 0.0
03/02:01am 4.3 3.0 4.0 98 0.1 CALM 0 0 0 0 1021.4 1021.4 0.0
03/02:00am 4.2 2.9 3.9 98 0.1 CALM 0 0 0 0 1021.4 1021.4 0.0
03/01:58am 4.2 2.9 3.9 98 0.1 CALM 0 0 0 0 1021.4 1021.4 0.0
03/01:30am 5.6 4.5 5.3 98 0.1 CALM 0 0 0 0 1021.7 1021.7 0.0
03/01:27am 5.7 4.7 5.4 98 0.1 CALM 0 0 0 0 1021.7 1021.7 0.0
03/01:00am 6.0 5.0 5.7 98 0.1 CALM 0 0 0 0 1022.0 1022.0 0.0
03/12:43am 5.7 4.7 5.4 98 0.1 CALM 0 0 0 0 1022.2 1022.2 0.0
03/12:37am 5.9 4.9 5.6 98 0.1 CALM 0 0 0 0 1022.2 1022.2 0.0
03/12:30am 6.0 5.0 5.7 98 0.1 CALM 0 0 0 0 1022.1 1022.1 0.0
03/12:00am 7.0 6.2 6.7 98 0.1 CALM 0 0 0 0 1022.3 1022.3 0.0
 
Date/Time
EST
Temp
°C
App
Temp
°C
Dew
Point
°C
Rel
Hum
%
Delta-T
°C
Wind Press
QNH
hPa
Press
MSL
hPa
Rain since
9am
mm
Dir  Spd
km/h
Gust
km/h
Spd
kts
Gust
kts
02/11:52pm 6.6 5.8 6.3 98 0.1 CALM 0 0 0 0 1022.4 1022.4 0.0
02/11:30pm 6.3 5.4 6.0 98 0.1 CALM 0 0 0 0 1022.6 1022.6 0.0
02/11:00pm 7.6 7.0 7.3 98 0.1 CALM 0 0 0 0 1022.6 1022.6 0.0
02/10:30pm 7.7 7.1 7.4 98 0.1 CALM 0 0 0 0 1022.8 1022.8 0.0
02/10:00pm 8.2 7.7 7.9 98 0.1 CALM 0 0 0 0 1022.8 1022.8 0.0
02/09:30pm 8.5 8.1 8.2 98 0.1 CALM 0 0 0 0 1022.9 1022.9 0.0

Other formats

Comma delimited format used in spreadsheet applications
http://www.bom.gov.au/fwo/IDN60801/IDN60801.95753.axf

JavaScript Object Notation format (JSON) in row-major order
http://www.bom.gov.au/fwo/IDN60801/IDN60801.95753.json

Data quality

Most of these data are generated automatically and are frequently updated. Quality checks on data are not normally performed. It is possible for incorrect values to appear. Refer to information at About Latest Weather Observations and please check the disclaimer before using these data.